Time;durP1;ratioP1;P1;durP2;ratioP2;P2;SDS_P1;SDS_P2;PMS_P1;PMS_P2;Temp;Humidity;BMP_temperature;BMP_pressure;BME280_temperature;BME280_humidity;BME280_pressure;Samples;Min_cycle;Max_cycle;Signal;HPM_P1;HPM_P2
2024/03/20 00:00:16;;;;;;;3.65;2.50;;;;;;;;;;10267882;28;20056;-74
2024/03/20 00:05:18;;;;;;;3.50;2.42;;;;;;;;;;10276565;28;20145;-74
2024/03/20 00:10:22;;;;;;;3.13;2.30;;;;;;;;;;10285573;28;20062;-74
2024/03/20 00:15:25;;;;;;;5.85;3.03;;;;;;;;;;10269683;28;20123;-74
2024/03/20 00:20:27;;;;;;;3.67;2.85;;;;;;;;;;10289604;28;20405;-74
2024/03/20 00:25:31;;;;;;;5.13;2.38;;;;;;;;;;10290486;28;20052;-74
2024/03/20 00:30:34;;;;;;;3.55;2.65;;;;;;;;;;10288223;28;20091;-74
2024/03/20 00:35:37;;;;;;;3.95;2.67;;;;;;;;;;10366935;28;20054;-74
2024/03/20 00:40:41;;;;;;;4.63;3.08;;;;;;;;;;10293772;28;20122;-73
2024/03/20 00:45:44;;;;;;;4.75;2.72;;;;;;;;;;10293629;28;20050;-74
2024/03/20 00:50:46;;;;;;;3.08;2.35;;;;;;;;;;10287275;28;20418;-74
2024/03/20 00:55:50;;;;;;;3.70;2.67;;;;;;;;;;10295139;28;20184;-74
2024/03/20 01:00:53;;;;;;;3.38;2.55;;;;;;;;;;10296405;28;20121;-74
2024/03/20 01:05:55;;;;;;;4.03;2.70;;;;;;;;;;10288671;28;21007;-74
2024/03/20 01:10:59;;;;;;;4.60;2.40;;;;;;;;;;10285663;28;20115;-74
2024/03/20 01:16:02;;;;;;;3.55;2.20;;;;;;;;;;10294245;28;20214;-74
2024/03/20 01:21:06;;;;;;;4.90;2.30;;;;;;;;;;10299840;28;20039;-74
2024/03/20 01:26:10;;;;;;;3.38;2.50;;;;;;;;;;10299104;28;20549;-74
2024/03/20 01:31:12;;;;;;;3.00;2.20;;;;;;;;;;10296614;28;20042;-74
2024/03/20 01:36:15;;;;;;;4.57;2.25;;;;;;;;;;10285998;28;20483;-74
2024/03/20 01:41:19;;;;;;;2.58;2.00;;;;;;;;;;10279553;28;20066;-74
2024/03/20 01:46:31;;;;;;;6.50;2.47;;;;;;;;;;10284397;28;20048;-74
2024/03/20 01:51:34;;;;;;;4.00;2.58;;;;;;;;;;10287880;28;20050;-74
2024/03/20 01:56:37;;;;;;;3.13;2.40;;;;;;;;;;10293760;28;20130;-74
2024/03/20 02:01:40;;;;;;;2.60;1.98;;;;;;;;;;10285570;28;20401;-74
2024/03/20 02:06:43;;;;;;;3.63;2.40;;;;;;;;;;10291425;28;20133;-74
2024/03/20 02:11:47;;;;;;;3.72;2.30;;;;;;;;;;10287817;28;20050;-74
2024/03/20 02:16:49;;;;;;;3.35;2.60;;;;;;;;;;10292967;28;20099;-74
2024/03/20 02:21:53;;;;;;;3.00;2.50;;;;;;;;;;10281203;28;20055;-74
2024/03/20 02:26:55;;;;;;;3.97;2.70;;;;;;;;;;10283399;28;20054;-74
2024/03/20 02:31:57;;;;;;;2.88;2.40;;;;;;;;;;10300910;28;20039;-74
2024/03/20 02:37:01;;;;;;;3.85;2.90;;;;;;;;;;10289074;28;20133;-74
2024/03/20 02:42:04;;;;;;;4.75;3.22;;;;;;;;;;10266945;28;20630;-74
2024/03/20 02:47:06;;;;;;;4.63;3.00;;;;;;;;;;10306179;28;20130;-74
2024/03/20 02:52:11;;;;;;;3.22;2.75;;;;;;;;;;10271370;28;20126;-74
2024/03/20 02:57:13;;;;;;;6.82;3.20;;;;;;;;;;10282706;28;20091;-74
2024/03/20 03:02:15;;;;;;;3.25;2.67;;;;;;;;;;10278623;28;20046;-74
2024/03/20 03:07:19;;;;;;;4.93;3.00;;;;;;;;;;10291820;28;20430;-74
2024/03/20 03:12:22;;;;;;;4.47;3.05;;;;;;;;;;10280457;28;20121;-74
2024/03/20 03:17:24;;;;;;;5.47;3.60;;;;;;;;;;10275254;28;20149;-74
2024/03/20 03:22:28;;;;;;;4.85;2.88;;;;;;;;;;10281305;28;20054;-74
2024/03/20 03:27:30;;;;;;;5.30;3.20;;;;;;;;;;10287204;28;20049;-74
2024/03/20 03:32:33;;;;;;;3.97;2.83;;;;;;;;;;10268746;28;20488;-74
2024/03/20 03:37:37;;;;;;;3.78;2.72;;;;;;;;;;10260034;28;20045;-74
2024/03/20 03:42:40;;;;;;;7.05;3.17;;;;;;;;;;10280070;28;20225;-74
2024/03/20 03:47:43;;;;;;;4.72;3.15;;;;;;;;;;10283777;28;20525;-74
2024/03/20 03:52:47;;;;;;;4.32;2.97;;;;;;;;;;10278267;28;20070;-74
2024/03/20 03:57:49;;;;;;;6.50;3.50;;;;;;;;;;10279442;28;20078;-74
2024/03/20 04:02:51;;;;;;;5.05;3.58;;;;;;;;;;10283650;28;20347;-74
2024/03/20 04:07:55;;;;;;;5.10;3.33;;;;;;;;;;10276905;28;20042;-74
2024/03/20 04:12:58;;;;;;;5.70;3.42;;;;;;;;;;10287847;28;20141;-74
2024/03/20 04:18:00;;;;;;;5.32;3.65;;;;;;;;;;10280813;28;20487;-74
2024/03/20 04:23:04;;;;;;;4.57;3.65;;;;;;;;;;10282523;28;20408;-74
2024/03/20 04:28:07;;;;;;;4.13;3.65;;;;;;;;;;10278763;28;20534;-74
2024/03/20 04:33:09;;;;;;;6.07;4.13;;;;;;;;;;10289898;28;20403;-74
2024/03/20 04:38:13;;;;;;;4.75;3.85;;;;;;;;;;10276440;28;20046;-74
2024/03/20 04:43:16;;;;;;;4.13;3.17;;;;;;;;;;10271111;28;20042;-74
2024/03/20 04:48:18;;;;;;;4.97;3.75;;;;;;;;;;10282392;28;20046;-74
2024/03/20 04:53:23;;;;;;;4.95;3.72;;;;;;;;;;10285158;28;20053;-74
2024/03/20 04:58:25;;;;;;;5.22;3.60;;;;;;;;;;10279141;28;20042;-74
2024/03/20 05:03:28;;;;;;;5.40;3.90;;;;;;;;;;10287367;28;20035;-74
2024/03/20 05:08:31;;;;;;;8.52;4.88;;;;;;;;;;10277243;28;20485;-74
2024/03/20 05:13:34;;;;;;;7.47;4.75;;;;;;;;;;10277971;28;20103;-74
2024/03/20 05:18:36;;;;;;;8.35;4.28;;;;;;;;;;10299244;23;20050;-73
2024/03/20 05:23:40;;;;;;;5.45;4.05;;;;;;;;;;10297488;28;20043;-75
2024/03/20 05:28:42;;;;;;;7.22;4.68;;;;;;;;;;10285334;28;20045;-74
2024/03/20 05:33:45;;;;;;;7.50;4.72;;;;;;;;;;10281005;28;20072;-74
2024/03/20 05:38:49;;;;;;;6.80;5.28;;;;;;;;;;10301325;28;20137;-74
2024/03/20 05:43:52;;;;;;;9.95;4.75;;;;;;;;;;10268098;28;20047;-74
2024/03/20 05:48:56;;;;;;;7.00;5.05;;;;;;;;;;10294139;28;20104;-74
2024/03/20 05:53:59;;;;;;;7.97;5.38;;;;;;;;;;10283694;28;20400;-74
2024/03/20 05:59:02;;;;;;;8.32;5.03;;;;;;;;;;10285256;28;20053;-74
2024/03/20 06:04:04;;;;;;;8.63;5.03;;;;;;;;;;10289091;28;20042;-74
2024/03/20 06:09:10;;;;;;;8.45;5.80;;;;;;;;;;10283569;28;20094;-74
2024/03/20 06:14:19;;;;;;;7.55;5.18;;;;;;;;;;10365523;28;20042;-74
2024/03/20 06:19:21;;;;;;;6.65;4.70;;;;;;;;;;10289190;28;20057;-74
2024/03/20 06:24:25;;;;;;;8.45;5.15;;;;;;;;;;10291773;28;20042;-74
2024/03/20 06:29:27;;;;;;;11.55;6.97;;;;;;;;;;10297251;28;20038;-74
2024/03/20 06:34:29;;;;;;;8.60;5.85;;;;;;;;;;10295578;28;20053;-74
2024/03/20 06:39:33;;;;;;;9.10;5.93;;;;;;;;;;10284421;28;20557;-74
2024/03/20 06:44:35;;;;;;;7.93;4.55;;;;;;;;;;10278350;28;20487;-74
2024/03/20 06:49:38;;;;;;;9.10;5.45;;;;;;;;;;10281057;28;20050;-74
2024/03/20 06:54:46;;;;;;;6.85;4.53;;;;;;;;;;10314202;28;20049;-74
2024/03/20 06:59:49;;;;;;;7.95;4.95;;;;;;;;;;10300640;28;20042;-74
2024/03/20 07:04:52;;;;;;;7.45;4.85;;;;;;;;;;10275417;28;20066;-74
2024/03/20 07:09:55;;;;;;;6.32;4.40;;;;;;;;;;10286298;28;20727;-74
2024/03/20 07:14:58;;;;;;;8.88;4.40;;;;;;;;;;10284936;28;20038;-74
2024/03/20 07:20:01;;;;;;;5.25;3.75;;;;;;;;;;10285373;28;20062;-74
2024/03/20 07:25:07;;;;;;;6.45;4.47;;;;;;;;;;10282591;28;20134;-74
2024/03/20 07:30:11;;;;;;;6.82;4.10;;;;;;;;;;10272820;28;20061;-74
2024/03/20 07:35:14;;;;;;;5.32;3.53;;;;;;;;;;10278452;28;20034;-74
2024/03/20 07:40:18;;;;;;;6.15;3.67;;;;;;;;;;10286094;28;20039;-74
2024/03/20 07:45:21;;;;;;;5.03;3.42;;;;;;;;;;10264344;28;20710;-74
2024/03/20 07:50:24;;;;;;;5.40;3.60;;;;;;;;;;10286717;28;20099;-74
2024/03/20 07:55:27;;;;;;;5.38;4.00;;;;;;;;;;10279336;28;20049;-74
2024/03/20 08:00:37;;;;;;;5.53;3.53;;;;;;;;;;10270643;28;20050;-74
2024/03/20 08:05:39;;;;;;;5.30;3.83;;;;;;;;;;10275265;28;20098;-74
2024/03/20 08:10:56;;;;;;;5.47;3.55;;;;;;;;;;10287412;28;20050;-74
2024/03/20 08:16:00;;;;;;;6.85;3.85;;;;;;;;;;10287556;28;20049;-75
2024/03/20 08:21:37;;;;;;;6.25;4.72;;;;;;;;;;10271472;28;20069;-74
2024/03/20 08:27:06;;;;;;;8.55;4.65;;;;;;;;;;10291489;28;20042;-74
2024/03/20 08:32:30;;;;;;;5.93;4.45;;;;;;;;;;10291519;28;20038;-74
2024/03/20 08:37:37;;;;;;;8.95;6.15;;;;;;;;;;10299831;28;20038;-74
2024/03/20 08:42:41;;;;;;;8.52;5.45;;;;;;;;;;10290795;28;20043;-74
2024/03/20 08:47:45;;;;;;;6.22;4.90;;;;;;;;;;10285532;28;20058;-74
2024/03/20 08:52:47;;;;;;;8.07;4.30;;;;;;;;;;10281001;28;20738;-74
2024/03/20 08:57:51;;;;;;;5.88;4.65;;;;;;;;;;10280264;28;20055;-74
2024/03/20 09:02:53;;;;;;;6.70;4.60;;;;;;;;;;10298168;28;20066;-74
2024/03/20 09:07:57;;;;;;;5.32;3.78;;;;;;;;;;10296298;28;20045;-74
2024/03/20 09:13:01;;;;;;;6.03;4.03;;;;;;;;;;10284657;28;20047;-74
2024/03/20 09:18:03;;;;;;;5.90;3.97;;;;;;;;;;10300435;28;20042;-74
2024/03/20 09:23:06;;;;;;;4.82;3.58;;;;;;;;;;10286153;28;20042;-74
2024/03/20 09:28:10;;;;;;;4.40;3.17;;;;;;;;;;10290265;28;20535;-74
2024/03/20 09:33:13;;;;;;;5.88;3.40;;;;;;;;;;10269706;28;20039;-74
2024/03/20 09:38:16;;;;;;;4.93;3.33;;;;;;;;;;10285775;28;20085;-74
2024/03/20 09:43:19;;;;;;;4.43;2.72;;;;;;;;;;10293203;28;20377;-74
2024/03/20 09:48:22;;;;;;;3.30;2.15;;;;;;;;;;10279645;28;20144;-74
2024/03/20 09:53:26;;;;;;;3.42;2.38;;;;;;;;;;10281837;28;20035;-74
2024/03/20 09:58:30;;;;;;;3.47;2.17;;;;;;;;;;10285804;28;20054;-74
2024/03/20 10:03:32;;;;;;;2.88;1.88;;;;;;;;;;10292626;28;20042;-74
2024/03/20 10:08:37;;;;;;;2.45;1.95;;;;;;;;;;10288234;28;20049;-74
2024/03/20 10:13:41;;;;;;;2.67;2.08;;;;;;;;;;10281020;28;20031;-74
2024/03/20 10:18:44;;;;;;;3.75;2.42;;;;;;;;;;10291134;28;20499;-74
2024/03/20 10:23:47;;;;;;;2.78;2.03;;;;;;;;;;10287391;28;20382;-74
2024/03/20 10:28:53;;;;;;;2.95;1.70;;;;;;;;;;10302404;28;20046;-74
2024/03/20 10:33:56;;;;;;;2.78;1.67;;;;;;;;;;10285638;28;20716;-74
2024/03/20 10:38:59;;;;;;;2.95;1.90;;;;;;;;;;10280102;28;20062;-74
2024/03/20 10:44:04;;;;;;;1.85;1.20;;;;;;;;;;10285923;28;20041;-75
2024/03/20 10:49:12;;;;;;;3.40;1.70;;;;;;;;;;10292324;28;20047;-74
2024/03/20 10:54:14;;;;;;;;;;;;;;;;;;10282063;28;20049;-75
2024/03/20 10:59:20;;;;;;;2.22;0.90;;;;;;;;;;10289704;28;19928;-75
2024/03/20 11:04:32;;;;;;;1.73;1.13;;;;;;;;;;10283019;28;20434;-74
2024/03/20 11:09:38;;;;;;;1.30;1.00;;;;;;;;;;10291385;28;20459;-74
2024/03/20 11:14:45;;;;;;;1.55;1.08;;;;;;;;;;10284768;28;20043;-74
2024/03/20 11:19:47;;;;;;;2.28;1.10;;;;;;;;;;10277939;23;21658;-75
2024/03/20 11:24:53;;;;;;;2.10;1.38;;;;;;;;;;10327131;28;20571;-75
2024/03/20 11:29:56;;;;;;;1.23;0.70;;;;;;;;;;10305561;28;20889;-75
2024/03/20 11:34:59;;;;;;;1.25;1.00;;;;;;;;;;10307727;28;20055;-75
2024/03/20 11:40:02;;;;;;;2.17;1.10;;;;;;;;;;10299604;28;20517;-75
2024/03/20 11:45:10;;;;;;;1.17;0.85;;;;;;;;;;10297575;28;20043;-75
2024/03/20 11:50:15;;;;;;;1.90;1.33;;;;;;;;;;10310004;28;20509;-75
2024/03/20 11:55:17;;;;;;;1.13;0.68;;;;;;;;;;10299494;28;22066;-75
2024/03/20 12:00:21;;;;;;;1.10;0.68;;;;;;;;;;10294684;28;20054;-75
2024/03/20 12:05:27;;;;;;;1.45;0.80;;;;;;;;;;10315217;28;20136;-75
2024/03/20 12:10:35;;;;;;;2.87;0.90;;;;;;;;;;10319354;28;20196;-75
2024/03/20 12:15:39;;;;;;;0.88;0.75;;;;;;;;;;10302298;28;20046;-75
2024/03/20 12:20:41;;;;;;;0.68;0.68;;;;;;;;;;10403602;28;20639;-75
2024/03/20 12:25:44;;;;;;;1.55;0.88;;;;;;;;;;10418591;28;20040;-75
2024/03/20 12:30:50;;;;;;;1.90;0.80;;;;;;;;;;10428525;28;20064;-75
2024/03/20 12:35:53;;;;;;;0.70;0.50;;;;;;;;;;10424049;28;20045;-75
2024/03/20 12:40:55;;;;;;;2.55;0.95;;;;;;;;;;10421302;28;20053;-75
2024/03/20 12:45:59;;;;;;;1.52;0.70;;;;;;;;;;10424672;28;20072;-75
2024/03/20 12:51:03;;;;;;;1.20;0.63;;;;;;;;;;10423981;28;20430;-75
2024/03/20 12:56:08;;;;;;;1.25;0.50;;;;;;;;;;10429875;28;20045;-75
2024/03/20 13:01:14;;;;;;;0.50;0.40;;;;;;;;;;10426893;28;20210;-75
2024/03/20 13:06:16;;;;;;;;;;;;;;;;;;10420754;28;20063;-75
2024/03/20 13:11:19;;;;;;;2.78;0.45;;;;;;;;;;10424876;28;20337;-75
2024/03/20 13:16:23;;;;;;;0.73;0.45;;;;;;;;;;10424957;28;20060;-75
2024/03/20 13:21:28;;;;;;;1.35;0.38;;;;;;;;;;10417788;28;20446;-75
2024/03/20 13:26:34;;;;;;;1.10;0.50;;;;;;;;;;10426337;28;20045;-75
2024/03/20 13:31:39;;;;;;;3.15;0.70;;;;;;;;;;10423916;28;20116;-75
2024/03/20 13:36:45;;;;;;;0.70;0.63;;;;;;;;;;10422078;28;20133;-75
2024/03/20 13:41:57;;;;;;;0.60;0.50;;;;;;;;;;10443842;28;20127;-75
2024/03/20 13:47:03;;;;;;;4.18;0.63;;;;;;;;;;10419531;28;20354;-75
2024/03/20 13:52:09;;;;;;;1.33;0.60;;;;;;;;;;10428000;28;20132;-75
2024/03/20 13:57:14;;;;;;;1.85;0.90;;;;;;;;;;10417992;28;20489;-75
2024/03/20 14:02:25;;;;;;;2.83;0.90;;;;;;;;;;10423096;28;20123;-75
2024/03/20 14:07:27;;;;;;;0.52;0.52;;;;;;;;;;10420466;28;20157;-75
2024/03/20 14:12:31;;;;;;;1.75;0.55;;;;;;;;;;10414491;28;20124;-75
2024/03/20 14:17:36;;;;;;;0.60;0.40;;;;;;;;;;10416109;28;20128;-76
2024/03/20 14:22:38;;;;;;;2.50;0.73;;;;;;;;;;10419523;28;20063;-75
2024/03/20 14:27:42;;;;;;;2.00;0.77;;;;;;;;;;10423779;28;20044;-75
2024/03/20 14:32:46;;;;;;;1.23;0.80;;;;;;;;;;10402062;28;20596;-75
2024/03/20 14:37:49;;;;;;;0.93;0.40;;;;;;;;;;10416996;28;20690;-75
2024/03/20 14:42:52;;;;;;;0.60;0.50;;;;;;;;;;10430386;28;20322;-75
2024/03/20 14:47:56;;;;;;;1.75;0.50;;;;;;;;;;10405750;28;20132;-75
2024/03/20 14:52:59;;;;;;;1.98;0.50;;;;;;;;;;10403248;28;20053;-75
2024/03/20 14:58:01;;;;;;;1.55;0.40;;;;;;;;;;10419306;28;20532;-75
2024/03/20 15:03:07;;;;;;;1.25;0.50;;;;;;;;;;10418674;28;20132;-75
2024/03/20 15:08:14;;;;;;;0.43;0.40;;;;;;;;;;10417320;28;20582;-75
2024/03/20 15:13:18;;;;;;;1.05;0.80;;;;;;;;;;10421404;28;20567;-75
2024/03/20 15:18:22;;;;;;;1.55;0.52;;;;;;;;;;10416811;28;20064;-75
2024/03/20 15:23:25;;;;;;;0.70;0.45;;;;;;;;;;10423669;28;20071;-75
2024/03/20 15:28:29;;;;;;;2.90;0.38;;;;;;;;;;10415446;28;20075;-75
2024/03/20 15:33:32;;;;;;;1.25;0.40;;;;;;;;;;10402555;28;20136;-75
2024/03/20 15:38:35;;;;;;;2.13;0.80;;;;;;;;;;10419292;28;20522;-75
2024/03/20 15:43:38;;;;;;;1.15;0.50;;;;;;;;;;10419007;28;20099;-75
2024/03/20 15:48:45;;;;;;;1.33;0.50;;;;;;;;;;10420911;28;20072;-75
2024/03/20 15:53:48;;;;;;;2.88;0.77;;;;;;;;;;10419065;28;20128;-75
2024/03/20 15:58:50;;;;;;;0.80;0.57;;;;;;;;;;10418647;28;20449;-75
2024/03/20 16:03:54;;;;;;;1.50;0.85;;;;;;;;;;10402311;28;20131;-75
2024/03/20 16:08:57;;;;;;;0.85;0.70;;;;;;;;;;10401791;28;20120;-75
2024/03/20 16:14:00;;;;;;;1.40;0.63;;;;;;;;;;10414856;28;20068;-74
2024/03/20 16:19:04;;;;;;;1.00;0.68;;;;;;;;;;10417664;28;20177;-74
2024/03/20 16:24:06;;;;;;;0.98;0.55;;;;;;;;;;10398034;28;20065;-74
2024/03/20 16:29:09;;;;;;;0.55;0.40;;;;;;;;;;10413253;28;20090;-74
2024/03/20 16:34:13;;;;;;;0.82;0.47;;;;;;;;;;10413910;28;20052;-74
2024/03/20 16:39:15;;;;;;;2.35;0.70;;;;;;;;;;10412882;28;20077;-74
2024/03/20 16:44:18;;;;;;;1.13;0.60;;;;;;;;;;10414537;28;20498;-74
2024/03/20 16:49:22;;;;;;;1.92;1.10;;;;;;;;;;10413051;28;20071;-74
2024/03/20 16:54:24;;;;;;;2.88;1.30;;;;;;;;;;10409521;28;20041;-74
2024/03/20 16:59:27;;;;;;;2.90;1.55;;;;;;;;;;10415439;28;20049;-74
2024/03/20 17:04:31;;;;;;;2.22;1.00;;;;;;;;;;10416781;28;20064;-74
2024/03/20 17:09:37;;;;;;;1.25;0.88;;;;;;;;;;10399143;28;20148;-74
2024/03/20 17:14:41;;;;;;;2.28;1.20;;;;;;;;;;10422743;28;20678;-74
2024/03/20 17:19:45;;;;;;;1.48;1.20;;;;;;;;;;10470831;22;20058;-73
2024/03/20 17:24:47;;;;;;;4.05;2.28;;;;;;;;;;10334344;28;20202;-73
2024/03/20 17:29:50;;;;;;;5.07;2.75;;;;;;;;;;10315311;28;20055;-73
2024/03/20 17:34:54;;;;;;;5.68;4.15;;;;;;;;;;10298216;28;20043;-73
2024/03/20 17:39:56;;;;;;;8.82;5.97;;;;;;;;;;10298849;28;20071;-73
2024/03/20 17:44:59;;;;;;;7.05;5.07;;;;;;;;;;10293215;28;20054;-75
2024/03/20 17:50:04;;;;;;;3.25;2.53;;;;;;;;;;10291976;28;20044;-73
2024/03/20 17:55:09;;;;;;;2.37;1.63;;;;;;;;;;10311340;28;20035;-73
2024/03/20 18:00:13;;;;;;;2.03;1.50;;;;;;;;;;10300877;28;20043;-73
2024/03/20 18:05:17;;;;;;;2.88;1.42;;;;;;;;;;10299333;28;20050;-73
2024/03/20 18:10:19;;;;;;;3.05;1.75;;;;;;;;;;10320288;28;20097;-74
2024/03/20 18:15:22;;;;;;;2.85;1.80;;;;;;;;;;10300845;28;20051;-73
2024/03/20 18:20:25;;;;;;;3.50;1.83;;;;;;;;;;10389062;28;20629;-73
2024/03/20 18:25:28;;;;;;;3.92;2.70;;;;;;;;;;10411261;28;20049;-73
2024/03/20 18:30:30;;;;;;;4.43;1.88;;;;;;;;;;10401151;28;20725;-73
2024/03/20 18:35:34;;;;;;;7.78;3.88;;;;;;;;;;10415369;28;20041;-73
2024/03/20 18:40:36;;;;;;;15.35;7.40;;;;;;;;;;10420103;28;20033;-73
2024/03/20 18:45:39;;;;;;;18.35;8.77;;;;;;;;;;10420619;28;20768;-73
2024/03/20 18:50:42;;;;;;;13.80;8.00;;;;;;;;;;10403219;28;20052;-73
2024/03/20 18:55:45;;;;;;;11.55;6.35;;;;;;;;;;10416205;28;20049;-73
2024/03/20 19:00:49;;;;;;;7.00;5.10;;;;;;;;;;10421245;28;20087;-73
2024/03/20 19:05:53;;;;;;;5.88;3.95;;;;;;;;;;10417903;28;20049;-73
2024/03/20 19:10:56;;;;;;;7.07;3.90;;;;;;;;;;10427624;28;20048;-73
2024/03/20 19:16:05;;;;;;;5.35;3.35;;;;;;;;;;10420005;28;20513;-73
2024/03/20 19:21:09;;;;;;;3.75;2.70;;;;;;;;;;10418373;28;20499;-73
2024/03/20 19:26:14;;;;;;;3.30;2.30;;;;;;;;;;10426003;28;20493;-73
2024/03/20 19:31:17;;;;;;;3.58;2.33;;;;;;;;;;10418797;28;20056;-73
2024/03/20 19:36:25;;;;;;;4.07;3.00;;;;;;;;;;10417313;28;20529;-73
2024/03/20 19:41:29;;;;;;;5.43;3.05;;;;;;;;;;10418128;28;20053;-73
2024/03/20 19:46:31;;;;;;;3.83;2.55;;;;;;;;;;10402737;28;20052;-73
2024/03/20 19:51:35;;;;;;;4.95;3.20;;;;;;;;;;10410564;28;20053;-73
2024/03/20 19:56:39;;;;;;;6.15;3.45;;;;;;;;;;10424900;28;20148;-73
2024/03/20 20:01:41;;;;;;;5.72;3.20;;;;;;;;;;10414582;28;20053;-73
2024/03/20 20:06:45;;;;;;;4.65;2.92;;;;;;;;;;10415561;28;20041;-73
2024/03/20 20:11:48;;;;;;;5.93;3.00;;;;;;;;;;10414001;28;20512;-73
2024/03/20 20:16:50;;;;;;;6.90;3.45;;;;;;;;;;10413278;28;20137;-73
2024/03/20 20:21:54;;;;;;;5.13;2.97;;;;;;;;;;10418961;28;20052;-73
2024/03/20 20:26:57;;;;;;;3.47;2.03;;;;;;;;;;10419865;28;20107;-73
2024/03/20 20:31:59;;;;;;;8.00;2.15;;;;;;;;;;10418294;28;20059;-73
2024/03/20 20:37:03;;;;;;;2.80;1.90;;;;;;;;;;10413876;28;20055;-73
2024/03/20 20:42:06;;;;;;;5.03;2.38;;;;;;;;;;10416656;28;20498;-73
2024/03/20 20:47:08;;;;;;;3.53;2.25;;;;;;;;;;10420661;28;20048;-73
2024/03/20 20:52:12;;;;;;;2.42;1.90;;;;;;;;;;10425220;28;20037;-73
2024/03/20 20:57:15;;;;;;;3.47;2.22;;;;;;;;;;10395127;28;20041;-73
2024/03/20 21:23:46;;;;;;;3.60;1.65;;;;;;;;;;10425317;28;20055;-73
2024/03/20 21:28:49;;;;;;;3.60;2.17;;;;;;;;;;10405607;28;20068;-73
2024/03/20 21:33:55;;;;;;;3.45;2.20;;;;;;;;;;10424226;28;20045;-73
2024/03/20 21:38:58;;;;;;;2.95;1.88;;;;;;;;;;10425303;28;20091;-73
2024/03/20 21:44:01;;;;;;;3.13;1.98;;;;;;;;;;10423976;28;20045;-73
2024/03/20 21:49:03;;;;;;;3.05;2.15;;;;;;;;;;10429333;28;20036;-72
2024/03/20 21:54:07;;;;;;;4.68;2.65;;;;;;;;;;10424170;28;20048;-73
2024/03/20 21:59:09;;;;;;;5.47;3.03;;;;;;;;;;10424433;28;20045;-73
2024/03/20 22:04:12;;;;;;;3.92;2.58;;;;;;;;;;10416711;28;20494;-73
2024/03/20 22:09:17;;;;;;;4.25;2.88;;;;;;;;;;10423623;28;20039;-73
2024/03/20 22:14:20;;;;;;;4.13;2.65;;;;;;;;;;10422361;28;20044;-72
2024/03/20 22:19:22;;;;;;;3.35;2.03;;;;;;;;;;10423648;28;20180;-73
2024/03/20 22:24:26;;;;;;;3.80;2.10;;;;;;;;;;10408192;28;20116;-73
2024/03/20 22:29:29;;;;;;;3.47;2.42;;;;;;;;;;10421022;28;20105;-72
2024/03/20 22:34:31;;;;;;;4.90;2.53;;;;;;;;;;10421747;28;20044;-73
2024/03/20 22:39:35;;;;;;;3.67;2.28;;;;;;;;;;10425596;28;20052;-73
2024/03/20 22:44:37;;;;;;;3.53;2.72;;;;;;;;;;10416981;28;20386;-73
2024/03/20 22:49:39;;;;;;;4.00;2.85;;;;;;;;;;10425908;28;20045;-72
2024/03/20 22:54:43;;;;;;;4.28;2.90;;;;;;;;;;10405360;28;20041;-73
2024/03/20 22:59:45;;;;;;;4.32;2.63;;;;;;;;;;10414587;28;20398;-73
2024/03/20 23:04:49;;;;;;;4.10;2.42;;;;;;;;;;10417658;28;20049;-73
2024/03/20 23:09:53;;;;;;;3.25;2.60;;;;;;;;;;10418842;28;20045;-73
2024/03/20 23:14:55;;;;;;;3.53;2.28;;;;;;;;;;10418312;28;20041;-73
2024/03/20 23:19:58;;;;;;;3.05;1.92;;;;;;;;;;10382709;22;20451;-74
2024/03/20 23:25:02;;;;;;;3.75;2.30;;;;;;;;;;10287088;28;20058;-74
2024/03/20 23:30:05;;;;;;;3.13;2.00;;;;;;;;;;10267370;28;20129;-74
2024/03/20 23:35:09;;;;;;;3.72;2.33;;;;;;;;;;10245722;28;20503;-74
2024/03/20 23:40:15;;;;;;;3.08;1.92;;;;;;;;;;10247202;28;20046;-73
2024/03/20 23:45:18;;;;;;;3.67;2.22;;;;;;;;;;10252788;28;20056;-74
2024/03/20 23:50:21;;;;;;;3.90;2.40;;;;;;;;;;10259977;28;20069;-74
2024/03/20 23:55:26;;;;;;;2.13;1.90;;;;;;;;;;10259467;28;20696;-73
